Nearby METAR Reports

 

KPMD - Palmdale, California, USA
Distance from station: NNE 12mi, 19km
Updated: Mon, 20-Aug-2018 7:53am PDT
Clear
Clear
 Wind from calm
Wind: Calm
Temperature: 84°F , 29°C
Dew Point: 48°F , 9°C
Humidity: 29%
Barometer: 29.96 inHg , 1014.6 hPa
Clouds: Clear
Visibility: 10 miles , 16 km
2018/08/20 14:53 KPMD 201453Z 00000KT 10SM CLR 29/09 A2996 RMK AO2 SLP109 T02890089 53006
KWJF - Lancaster/Fox, California, USA
Distance from station: N 17mi, 27km
Updated: Mon, 20-Aug-2018 7:56am PDT
Clear
Clear
 Wind from calm
Wind: Calm
Temperature: 81°F , 27°C
Dew Point: 52°F , 11°C
Humidity: 37%
Barometer: 29.95 inHg , 1014.2 hPa
Clouds: Clear
Visibility: 10 miles , 16 km
2018/08/20 14:56 KWJF 201456Z 00000KT 10SM CLR 27/11 A2995 RMK AO2 SLP117 T02720106 53009
 
KMWS - Mount Wilson, California, USA
Distance from station: SSE 18mi, 30km
Updated: Wed, 13-May-2015 6:45am PDT
NOT Current

 Wind from S
Wind: S 3 mph , 6 km/h, Gust: 5 mph , 7 km/h
Temperature: 43°F , 6°C
Dew Point: -0°F , -18°C
Humidity: 16%
2015/05/13 13:45 KMWS 131345Z 18003G04KT 06/M18 RMK SNOW DEPTH 1.00
KWHP - La / Whiteman, California, USA
Distance from station: SW 21mi, 34km
Updated: Mon, 20-Aug-2018 7:50am PDT
Mist, Overcast
Mist, Overcast
 Wind from calm
Wind: Calm
Temperature: 68°F , 20°C
Dew Point: 64°F , 18°C
Humidity: 88%
Barometer: 29.98 inHg , 1015.2 hPa
Summary: Mist
Clouds: Overcast
Visibility: 5 miles , 8 km
Cloud details: Overcast 1000 ft
2018/08/20 14:50 KWHP 201450Z 00000KT 5SM BR OVC010 20/18 A2998
 
KBUR - Burbank, California, USA
Distance from station: SSW 22mi, 35km
Updated: Mon, 20-Aug-2018 8:23am PDT
Mist, Overcast
Mist, Overcast
 Wind from SSE
Wind: SSE 8 mph , 13 km/h
Temperature: 70°F , 21°C
Dew Point: 66°F , 19°C
Humidity: 88%
Barometer: 29.95 inHg , 1014.2 hPa
Summary: Mist
Clouds: Overcast
Visibility: 6 miles , 10 km
Cloud details: Overcast 1000 ft
2018/08/20 15:23 KBUR 201523Z 16007KT 6SM BR OVC010 21/19 A2995 RMK AO2 T02060194 $
KVNY - Van Nuys, California, USA
Distance from station: SW 25mi, 40km
Updated: Mon, 20-Aug-2018 7:51am PDT
Haze, Overcast
Haze, Overcast
 Wind from SSE
Wind: SSE 6 mph , 9 km/h
Temperature: 70°F , 21°C
Dew Point: 64°F , 18°C
Humidity: 83%
Barometer: 29.94 inHg , 1013.9 hPa
Summary: Haze
Clouds: Overcast
Visibility: 5 miles , 8 km
Cloud details: Overcast 1000 ft
2018/08/20 14:51 KVNY 201451Z 16005KT 5SM HZ OVC010 21/18 A2994 RMK AO2 SLP130 T02110183 51011
 
KEDW - Edwards Afb, California, USA
Distance from station: NNE 33mi, 53km
Updated: Mon, 20-Aug-2018 7:58am PDT
Few Clouds
Few Clouds
 Wind from SW
Wind: SW 15 mph , 24 km/h
Temperature: 81°F , 27°C
Dew Point: 52°F , 11°C
Humidity: 37%
Barometer: 29.92 inHg , 1013.2 hPa
Clouds: Few Clouds
Visibility: 50 miles , 80 km
Cloud details: Few Clouds 16000 ft
Few Clouds 30000 ft
2018/08/20 14:58 KEDW 201458Z 22013KT 50SM FEW160 FEW300 27/11 A2992 RMK AO2A SLP102 CONTRAILS T02650110 53007
KSMO - Santa Monica, California, USA
Distance from station: SSW 35mi, 57km
Updated: Mon, 20-Aug-2018 7:51am PDT
Overcast
Overcast
 Wind from E
Wind: E 5 mph , 7 km/h
Temperature: 75°F , 24°C
Dew Point: 64°F , 18°C
Humidity: 69%
Barometer: 29.93 inHg , 1013.5 hPa
Clouds: Overcast
Visibility: 9 miles , 14 km
Cloud details: Overcast 1700 ft
2018/08/20 14:51 KSMO 201451Z 10004KT 9SM OVC017 24/18 A2993 RMK AO2 SLP135 T02390183 53013
 
KLAX - Los Angeles, California, USA
Distance from station: SSW 39mi, 63km
Updated: Mon, 20-Aug-2018 8:17am PDT
Overcast
Overcast
 Wind from SE
Wind: SE 7 mph , 11 km/h
Temperature: 73°F , 23°C
Dew Point: 64°F , 18°C
Humidity: 74%
Barometer: 29.94 inHg , 1013.9 hPa
Clouds: Overcast
Visibility: 8 miles , 13 km
Cloud details: Overcast 1900 ft
2018/08/20 15:17 KLAX 201517Z 13006KT 8SM OVC019 23/18 A2994 RMK AO2 T02330178
KMHV - Mojave, California, USA
Distance from station: N 41mi, 66km
Updated: Mon, 20-Aug-2018 8:00am PDT
Clear
Clear
 Wind from SW
Wind: SW 8 mph , 13 km/h
Temperature: 84°F , 29°C
Dew Point: 39°F , 4°C
Humidity: 20%
Barometer: 29.95 inHg , 1014.2 hPa
Clouds: Clear
Visibility: 10 miles , 16 km
2018/08/20 15:00 KMHV 201500Z AUTO 23007KT 10SM CLR 29/04 A2995 RMK A01
 
KFUL - Fullerton, California, USA
Distance from station: SSE 44mi, 70km
Updated: Mon, 20-Aug-2018 7:53am PDT
Overcast
Overcast
 Wind from S
Wind: S 5 mph , 7 km/h
Temperature: 73°F , 23°C
Dew Point: 64°F , 18°C
Humidity: 74%
Barometer: 29.93 inHg , 1013.5 hPa
Clouds: Overcast
Visibility: 8 miles , 13 km
Cloud details: Overcast 1700 ft
2018/08/20 14:53 KFUL 201453Z 18004KT 8SM OVC017 23/18 A2993 RMK AO2 SLP133 T02330183 53013
KONT - Ontario, California, USA
Distance from station: SE 45mi, 72km
Updated: Mon, 20-Aug-2018 8:12am PDT
Haze, Partly cloudy
Haze, Partly cloudy
 Wind from W
Wind: W 6 mph , 9 km/h
Temperature: 72°F , 22°C
Dew Point: 64°F , 18°C
Humidity: 78%
Barometer: 29.96 inHg , 1014.6 hPa
Summary: Haze
Clouds: Partly cloudy
Visibility: 4 miles , 6 km
Cloud details: Few Clouds 1000 ft
Partly cloudy 2300 ft
2018/08/20 15:12 KONT 201512Z 26005KT 4SM HZ FEW010 SCT023 22/18 A2996 RMK AO2 VIS SW 2 1/2 T02170178
 
KLGB - Long Beach, California, USA
Distance from station: S 46mi, 74km
Updated: Mon, 20-Aug-2018 7:53am PDT
Overcast
Overcast
 Wind from SSE
Wind: SSE 7 mph , 11 km/h
Temperature: 73°F , 23°C
Dew Point: 66°F , 19°C
Humidity: 78%
Barometer: 29.93 inHg , 1013.5 hPa
Clouds: Overcast
Visibility: 9 miles , 14 km
Cloud details: Overcast 1700 ft
2018/08/20 14:53 KLGB 201453Z 16006KT 9SM OVC017 23/19 A2993 RMK AO2 SLP135 T02280189 53014
KVCV - Victorville, California, USA
Distance from station: E 46mi, 74km
Updated: Mon, 20-Aug-2018 7:45am PDT
Clear
Clear
 Wind from calm
Wind: Calm
Barometer: 29.98 inHg , 1015.2 hPa
Clouds: Clear
Visibility: 10 miles , 16 km
2018/08/20 14:45 KVCV 201445Z 00000KT 10SM SKC A2998
 
KTSP - Tehachapi, California, USA
Distance from station: NNW 48mi, 77km
Updated: Sun, 19-Aug-2018 7:15am PDT
NOT Current
Clear
Clear
 Wind from WNW
Wind: WNW 3 mph , 6 km/h
Temperature: 68°F , 20°C
Dew Point: 41°F , 5°C
Humidity: 38%
Barometer: 30.16 inHg , 1021.3 hPa
Clouds: Clear
Visibility: 10 miles , 16 km
2018/08/19 14:15 KTSP 191415Z AUTO 30003KT 10SM CLR 20/05 A3016 RMK AO2